Aeroporto :
LOGIN :

Iscrizione | Disclaimer

   EN    FR    IT 

 










Sommario :    VFR   VFR Marginale   IFR   IFR Intensivo   IFR Molto Intensivo
Visibilità : 
Base nubi : 
>= 8 km
>= 3000ft
5 / 8 km
1000 / 3000 ft
1500m / 5 km
500 / 1000 ft
800 / 1500m
200 / 500 ft
< 800m
< 200 ft
Simboli :   Temporali  Nebbia  Neve Forte  Precipitazioni Forti  Vento > 20 kt
SIGMETs :   Varie  Temporali  Ghiacco  Turbolenza  Onda orograficha  Ceneri Vulcaniche






- Altitudine del aeroporto : 821 ft
- Codice IATA : LYS


LFLL - Lyon St Exupéry / Satolas

ULTIMO METAR :
  • 240800Z VRB03KT 0200 R35L/0250N R17R/0350N R35R/0250N R17L/0325N FG VV/// M01/M01 Q1026 NOSIG

METARs OBSOLETI :
  • 240730Z VRB02KT 0250 R35L/0300N R17R/0375N R35R/0275N R17L/0325N FG VV/// M01/M01 Q1026 NOSIG
  • 240700Z VRB02KT 0350 R35L/0350N R17R/0400N R35R/0350N R17L/0400N FG VV/// M01/M01 Q1026 NOSIG
  • 240630Z 16003KT 0350 R35L/0400N R17R/0500N R35R/0400N R17L/0500N FG VV/// M01/M01 Q1026 NOSIG
  • 240600Z VRB02KT 0350 R35L/0550N R17R/0550U R35R/0400N R17L/0450N FG VV/// M00/M01 Q1026 NOSIG

TAF TAF LFLL
Valido dal 24 a 06 ore il 25 a 12 ore UTC


240500Z 2406/2512 VRB02KT 0400 FG VV///
PROB40
TEMPO 2406/2409 0250
PROB30
TEMPO 2406/2409 FZFG
BECMG 2409/2413 7000 NSW SCT002
FM241500 16010KT CAVOK



MetMap, La meteo Aeronautica in un colpo d'occhio ! - Copyright ORBIFLY Dicembre 2007 - Disclaimer

ORBIFLY MET'MAP TEAM :

Programmazione e sviluppo : Alexandra Zaïnal
Concezione : Baudouin d'Aumeries
Aiuto per la programmazione : Marc-Olivier Méhu
Supporto tecnico e logistico : Manuel Goepfert
Aiuto per la traduzione : Arnaldo La Scala

Contatto : metmap@orbifly.com




FONTI E CREDITI :

   NOAA